sensor_id;sensor_type;location;lat;lon;timestamp;temperature;humidity
83841;DHT22;73868;52.172;10.668;2024-03-23T00:52:18;8.30;97.10
83841;DHT22;73868;52.172;10.668;2024-03-23T00:54:43;8.30;97.10
83841;DHT22;73868;52.172;10.668;2024-03-23T00:57:09;8.30;97.10
83841;DHT22;73868;52.172;10.668;2024-03-23T00:59:35;8.30;97.10
83841;DHT22;73868;52.172;10.668;2024-03-23T01:02:00;8.30;97.10
83841;DHT22;73868;52.172;10.668;2024-03-23T01:04:26;8.40;97.10
83841;DHT22;73868;52.172;10.668;2024-03-23T01:06:51;8.30;96.80
83841;DHT22;73868;52.172;10.668;2024-03-23T01:09:17;8.30;96.50
83841;DHT22;73868;52.172;10.668;2024-03-23T01:11:42;8.20;95.90
83841;DHT22;73868;52.172;10.668;2024-03-23T01:14:08;8.10;95.10
83841;DHT22;73868;52.172;10.668;2024-03-23T01:16:33;8.00;94.90
83841;DHT22;73868;52.172;10.668;2024-03-23T01:18:59;8.00;94.50
83841;DHT22;73868;52.172;10.668;2024-03-23T01:21:25;7.90;94.50
83841;DHT22;73868;52.172;10.668;2024-03-23T01:23:50;7.80;94.60
83841;DHT22;73868;52.172;10.668;2024-03-23T01:26:16;7.70;94.70
83841;DHT22;73868;52.172;10.668;2024-03-23T01:28:42;7.80;94.50
83841;DHT22;73868;52.172;10.668;2024-03-23T01:31:07;7.70;94.40
83841;DHT22;73868;52.172;10.668;2024-03-23T01:33:33;7.60;94.50
83841;DHT22;73868;52.172;10.668;2024-03-23T01:35:58;7.60;94.70
83841;DHT22;73868;52.172;10.668;2024-03-23T01:38:24;7.60;94.80
83841;DHT22;73868;52.172;10.668;2024-03-23T01:40:49;7.60;95.10
83841;DHT22;73868;52.172;10.668;2024-03-23T01:43:15;7.60;95.10
83841;DHT22;73868;52.172;10.668;2024-03-23T01:45:40;7.60;95.00
83841;DHT22;73868;52.172;10.668;2024-03-23T01:48:06;7.60;95.20
83841;DHT22;73868;52.172;10.668;2024-03-23T01:50:33;7.50;95.40
83841;DHT22;73868;52.172;10.668;2024-03-23T01:53:03;7.60;95.50
83841;DHT22;73868;52.172;10.668;2024-03-23T01:55:34;7.50;95.40
83841;DHT22;73868;52.172;10.668;2024-03-23T01:58:00;7.60;95.10
83841;DHT22;73868;52.172;10.668;2024-03-23T02:00:27;7.60;95.30
83841;DHT22;73868;52.172;10.668;2024-03-23T02:02:53;7.60;95.50
83841;DHT22;73868;52.172;10.668;2024-03-23T02:05:20;7.70;95.70
83841;DHT22;73868;52.172;10.668;2024-03-23T02:07:45;7.60;95.90
83841;DHT22;73868;52.172;10.668;2024-03-23T02:10:11;7.60;95.90
83841;DHT22;73868;52.172;10.668;2024-03-23T02:12:40;7.60;96.00
83841;DHT22;73868;52.172;10.668;2024-03-23T02:15:06;7.60;96.00
83841;DHT22;73868;52.172;10.668;2024-03-23T02:17:34;7.50;95.90
83841;DHT22;73868;52.172;10.668;2024-03-23T02:20:00;7.60;95.90
83841;DHT22;73868;52.172;10.668;2024-03-23T02:22:37;7.50;96.00
83841;DHT22;73868;52.172;10.668;2024-03-23T02:25:04;7.50;96.20
83841;DHT22;73868;52.172;10.668;2024-03-23T02:27:30;7.50;96.40
83841;DHT22;73868;52.172;10.668;2024-03-23T02:29:56;7.60;96.40
83841;DHT22;73868;52.172;10.668;2024-03-23T02:32:21;7.60;96.30
83841;DHT22;73868;52.172;10.668;2024-03-23T02:34:47;7.50;96.20
83841;DHT22;73868;52.172;10.668;2024-03-23T02:37:12;7.50;96.40
83841;DHT22;73868;52.172;10.668;2024-03-23T02:39:38;7.50;96.40
83841;DHT22;73868;52.172;10.668;2024-03-23T02:42:03;7.50;96.40
83841;DHT22;73868;52.172;10.668;2024-03-23T02:44:29;7.50;96.50
83841;DHT22;73868;52.172;10.668;2024-03-23T02:46:54;7.30;96.80
83841;DHT22;73868;52.172;10.668;2024-03-23T02:49:20;7.40;96.90
83841;DHT22;73868;52.172;10.668;2024-03-23T02:51:46;7.40;97.00
83841;DHT22;73868;52.172;10.668;2024-03-23T02:54:14;7.40;97.10
83841;DHT22;73868;52.172;10.668;2024-03-23T02:56:39;7.40;97.10
83841;DHT22;73868;52.172;10.668;2024-03-23T02:59:05;7.40;97.10
83841;DHT22;73868;52.172;10.668;2024-03-23T03:01:30;7.40;97.00
83841;DHT22;73868;52.172;10.668;2024-03-23T03:03:56;7.40;96.80
83841;DHT22;73868;52.172;10.668;2024-03-23T03:06:25;7.30;96.60
83841;DHT22;73868;52.172;10.668;2024-03-23T03:08:51;7.40;96.40
83841;DHT22;73868;52.172;10.668;2024-03-23T03:11:17;7.20;96.40
83841;DHT22;73868;52.172;10.668;2024-03-23T03:13:42;7.30;96.50
83841;DHT22;73868;52.172;10.668;2024-03-23T03:16:11;7.30;96.50
83841;DHT22;73868;52.172;10.668;2024-03-23T03:18:37;7.30;96.40
83841;DHT22;73868;52.172;10.668;2024-03-23T03:21:04;7.30;96.10
83841;DHT22;73868;52.172;10.668;2024-03-23T03:23:30;7.20;96.00
83841;DHT22;73868;52.172;10.668;2024-03-23T03:25:56;7.30;95.40
83841;DHT22;73868;52.172;10.668;2024-03-23T03:28:22;7.20;95.40
83841;DHT22;73868;52.172;10.668;2024-03-23T03:30:47;7.20;95.50
83841;DHT22;73868;52.172;10.668;2024-03-23T03:33:13;7.20;95.40
83841;DHT22;73868;52.172;10.668;2024-03-23T03:35:39;7.20;95.50
83841;DHT22;73868;52.172;10.668;2024-03-23T03:38:04;7.20;95.60
83841;DHT22;73868;52.172;10.668;2024-03-23T03:40:30;7.10;95.70
83841;DHT22;73868;52.172;10.668;2024-03-23T03:42:56;7.10;95.40
83841;DHT22;73868;52.172;10.668;2024-03-23T03:45:21;7.00;95.40
83841;DHT22;73868;52.172;10.668;2024-03-23T03:47:47;7.20;95.60
83841;DHT22;73868;52.172;10.668;2024-03-23T03:50:12;7.10;95.50
83841;DHT22;73868;52.172;10.668;2024-03-23T03:52:38;7.10;95.70
83841;DHT22;73868;52.172;10.668;2024-03-23T03:55:12;7.00;95.70
83841;DHT22;73868;52.172;10.668;2024-03-23T03:57:38;7.00;95.90
83841;DHT22;73868;52.172;10.668;2024-03-23T04:00:04;7.00;96.00
83841;DHT22;73868;52.172;10.668;2024-03-23T04:02:30;7.00;95.90
83841;DHT22;73868;52.172;10.668;2024-03-23T04:04:55;7.00;96.10
83841;DHT22;73868;52.172;10.668;2024-03-23T04:07:21;7.00;96.10
83841;DHT22;73868;52.172;10.668;2024-03-23T04:09:48;7.00;96.10
83841;DHT22;73868;52.172;10.668;2024-03-23T04:12:14;7.00;96.10
83841;DHT22;73868;52.172;10.668;2024-03-23T04:14:41;7.00;96.30
83841;DHT22;73868;52.172;10.668;2024-03-23T04:17:07;7.00;96.00
83841;DHT22;73868;52.172;10.668;2024-03-23T04:19:33;7.10;96.30
83841;DHT22;73868;52.172;10.668;2024-03-23T04:21:58;7.00;96.30
83841;DHT22;73868;52.172;10.668;2024-03-23T04:24:24;6.90;96.50
83841;DHT22;73868;52.172;10.668;2024-03-23T04:26:51;7.00;96.60
83841;DHT22;73868;52.172;10.668;2024-03-23T04:29:17;7.00;96.70
83841;DHT22;73868;52.172;10.668;2024-03-23T04:31:42;7.00;96.80
83841;DHT22;73868;52.172;10.668;2024-03-23T04:34:08;7.00;96.90
83841;DHT22;73868;52.172;10.668;2024-03-23T04:36:33;6.90;96.90
83841;DHT22;73868;52.172;10.668;2024-03-23T04:39:00;7.00;96.90
83841;DHT22;73868;52.172;10.668;2024-03-23T04:41:25;7.00;97.00
83841;DHT22;73868;52.172;10.668;2024-03-23T04:43:51;7.00;96.90
83841;DHT22;73868;52.172;10.668;2024-03-23T04:46:17;6.90;97.00
83841;DHT22;73868;52.172;10.668;2024-03-23T04:48:42;7.10;97.10
83841;DHT22;73868;52.172;10.668;2024-03-23T04:51:10;7.00;96.80
83841;DHT22;73868;52.172;10.668;2024-03-23T04:53:38;7.10;96.70
83841;DHT22;73868;52.172;10.668;2024-03-23T04:56:03;7.00;96.50
83841;DHT22;73868;52.172;10.668;2024-03-23T04:58:29;7.00;96.80
83841;DHT22;73868;52.172;10.668;2024-03-23T05:00:56;7.00;97.00
83841;DHT22;73868;52.172;10.668;2024-03-23T05:03:22;7.00;96.90
83841;DHT22;73868;52.172;10.668;2024-03-23T05:05:48;7.00;96.80
83841;DHT22;73868;52.172;10.668;2024-03-23T05:08:14;6.90;96.40
83841;DHT22;73868;52.172;10.668;2024-03-23T05:10:44;6.90;96.60
83841;DHT22;73868;52.172;10.668;2024-03-23T05:13:10;6.90;96.50
83841;DHT22;73868;52.172;10.668;2024-03-23T05:15:35;6.90;96.60
83841;DHT22;73868;52.172;10.668;2024-03-23T05:18:01;7.00;96.40
83841;DHT22;73868;52.172;10.668;2024-03-23T05:20:27;6.90;96.20
83841;DHT22;73868;52.172;10.668;2024-03-23T05:22:54;6.80;96.00
83841;DHT22;73868;52.172;10.668;2024-03-23T05:25:20;6.80;96.00
83841;DHT22;73868;52.172;10.668;2024-03-23T05:27:45;6.70;95.90
83841;DHT22;73868;52.172;10.668;2024-03-23T05:30:11;6.70;95.90
83841;DHT22;73868;52.172;10.668;2024-03-23T05:32:36;6.70;95.70
83841;DHT22;73868;52.172;10.668;2024-03-23T05:35:04;6.70;95.40
83841;DHT22;73868;52.172;10.668;2024-03-23T05:37:29;6.70;95.70
83841;DHT22;73868;52.172;10.668;2024-03-23T05:39:56;6.60;95.50
83841;DHT22;73868;52.172;10.668;2024-03-23T05:42:22;6.70;95.90
83841;DHT22;73868;52.172;10.668;2024-03-23T05:44:47;6.60;95.90
83841;DHT22;73868;52.172;10.668;2024-03-23T05:47:13;6.80;96.00
83841;DHT22;73868;52.172;10.668;2024-03-23T05:49:40;6.80;95.90
83841;DHT22;73868;52.172;10.668;2024-03-23T05:52:09;6.80;95.80
83841;DHT22;73868;52.172;10.668;2024-03-23T05:54:35;6.80;95.70
83841;DHT22;73868;52.172;10.668;2024-03-23T05:57:01;6.80;95.50
83841;DHT22;73868;52.172;10.668;2024-03-23T05:59:27;6.80;95.50
83841;DHT22;73868;52.172;10.668;2024-03-23T06:01:53;6.70;95.60
83841;DHT22;73868;52.172;10.668;2024-03-23T06:04:19;6.70;95.70
83841;DHT22;73868;52.172;10.668;2024-03-23T06:06:45;6.70;95.80
83841;DHT22;73868;52.172;10.668;2024-03-23T06:09:10;6.70;95.80
83841;DHT22;73868;52.172;10.668;2024-03-23T06:11:36;6.70;96.10
83841;DHT22;73868;52.172;10.668;2024-03-23T06:14:02;6.70;96.10
83841;DHT22;73868;52.172;10.668;2024-03-23T06:16:27;6.70;96.20
83841;DHT22;73868;52.172;10.668;2024-03-23T06:18:53;6.80;96.40
83841;DHT22;73868;52.172;10.668;2024-03-23T06:21:20;6.80;96.50
83841;DHT22;73868;52.172;10.668;2024-03-23T06:23:46;6.80;96.50
83841;DHT22;73868;52.172;10.668;2024-03-23T06:26:18;6.80;96.30
83841;DHT22;73868;52.172;10.668;2024-03-23T06:28:44;6.90;96.30
83841;DHT22;73868;52.172;10.668;2024-03-23T06:31:10;6.90;96.20
83841;DHT22;73868;52.172;10.668;2024-03-23T06:33:36;6.90;96.10
83841;DHT22;73868;52.172;10.668;2024-03-23T06:36:02;7.00;95.80
83841;DHT22;73868;52.172;10.668;2024-03-23T06:38:28;6.90;95.30
83841;DHT22;73868;52.172;10.668;2024-03-23T06:40:54;7.00;95.40
83841;DHT22;73868;52.172;10.668;2024-03-23T06:43:19;6.90;92.80
83841;DHT22;73868;52.172;10.668;2024-03-23T06:45:55;7.00;91.70
83841;DHT22;73868;52.172;10.668;2024-03-23T06:48:21;6.90;92.30
83841;DHT22;73868;52.172;10.668;2024-03-23T06:50:48;7.00;92.70
83841;DHT22;73868;52.172;10.668;2024-03-23T06:53:15;6.90;92.50
83841;DHT22;73868;52.172;10.668;2024-03-23T06:55:41;6.90;93.00
83841;DHT22;73868;52.172;10.668;2024-03-23T06:58:07;7.00;93.60
83841;DHT22;73868;52.172;10.668;2024-03-23T07:00:33;6.90;92.40
83841;DHT22;73868;52.172;10.668;2024-03-23T07:02:59;6.70;90.90
83841;DHT22;73868;52.172;10.668;2024-03-23T07:05:25;6.70;90.20
83841;DHT22;73868;52.172;10.668;2024-03-23T07:07:50;6.60;89.90
83841;DHT22;73868;52.172;10.668;2024-03-23T07:10:16;6.60;90.80
83841;DHT22;73868;52.172;10.668;2024-03-23T07:12:44;6.70;89.30
83841;DHT22;73868;52.172;10.668;2024-03-23T07:15:30;6.60;90.30
83841;DHT22;73868;52.172;10.668;2024-03-23T07:17:56;6.60;91.00
83841;DHT22;73868;52.172;10.668;2024-03-23T07:20:21;6.70;90.50
83841;DHT22;73868;52.172;10.668;2024-03-23T07:22:47;6.70;90.60
83841;DHT22;73868;52.172;10.668;2024-03-23T07:25:13;6.70;90.70
83841;DHT22;73868;52.172;10.668;2024-03-23T07:27:39;6.60;90.30
83841;DHT22;73868;52.172;10.668;2024-03-23T07:30:05;6.70;91.10
83841;DHT22;73868;52.172;10.668;2024-03-23T07:32:31;6.60;91.60
83841;DHT22;73868;52.172;10.668;2024-03-23T07:34:57;6.70;92.50
83841;DHT22;73868;52.172;10.668;2024-03-23T07:37:22;6.80;91.90
83841;DHT22;73868;52.172;10.668;2024-03-23T07:39:48;6.80;91.60
83841;DHT22;73868;52.172;10.668;2024-03-23T07:42:14;6.80;90.80
83841;DHT22;73868;52.172;10.668;2024-03-23T07:44:40;6.90;90.60
83841;DHT22;73868;52.172;10.668;2024-03-23T07:47:05;6.80;90.50
83841;DHT22;73868;52.172;10.668;2024-03-23T07:49:31;6.90;90.50
83841;DHT22;73868;52.172;10.668;2024-03-23T07:51:56;6.90;91.30
83841;DHT22;73868;52.172;10.668;2024-03-23T07:54:22;7.10;90.50
83841;DHT22;73868;52.172;10.668;2024-03-23T07:56:47;7.00;90.60
83841;DHT22;73868;52.172;10.668;2024-03-23T07:59:13;7.10;89.80
83841;DHT22;73868;52.172;10.668;2024-03-23T08:01:39;7.10;90.70
83841;DHT22;73868;52.172;10.668;2024-03-23T08:04:05;7.10;90.70
83841;DHT22;73868;52.172;10.668;2024-03-23T08:06:31;7.10;89.40
83841;DHT22;73868;52.172;10.668;2024-03-23T08:08:57;7.10;89.40
83841;DHT22;73868;52.172;10.668;2024-03-23T08:11:31;7.10;88.60
83841;DHT22;73868;52.172;10.668;2024-03-23T08:13:57;7.10;89.60
83841;DHT22;73868;52.172;10.668;2024-03-23T08:16:23;7.10;88.90
83841;DHT22;73868;52.172;10.668;2024-03-23T08:18:51;7.10;89.10
83841;DHT22;73868;52.172;10.668;2024-03-23T08:21:17;7.10;88.60
83841;DHT22;73868;52.172;10.668;2024-03-23T08:23:44;7.30;87.20
83841;DHT22;73868;52.172;10.668;2024-03-23T08:26:11;7.30;86.50
83841;DHT22;73868;52.172;10.668;2024-03-23T08:28:37;7.30;85.70
83841;DHT22;73868;52.172;10.668;2024-03-23T08:31:07;7.30;87.40
83841;DHT22;73868;52.172;10.668;2024-03-23T08:33:34;7.30;88.10
83841;DHT22;73868;52.172;10.668;2024-03-23T08:36:01;7.30;88.90
83841;DHT22;73868;52.172;10.668;2024-03-23T08:38:28;7.40;87.80
83841;DHT22;73868;52.172;10.668;2024-03-23T08:41:04;7.40;87.50
83841;DHT22;73868;52.172;10.668;2024-03-23T08:43:40;7.50;88.30
83841;DHT22;73868;52.172;10.668;2024-03-23T08:46:10;7.50;87.70
83841;DHT22;73868;52.172;10.668;2024-03-23T08:48:44;7.50;88.50
83841;DHT22;73868;52.172;10.668;2024-03-23T08:51:12;7.70;87.40
83841;DHT22;73868;52.172;10.668;2024-03-23T08:53:38;7.60;88.50
83841;DHT22;73868;52.172;10.668;2024-03-23T08:56:04;7.70;87.30
83841;DHT22;73868;52.172;10.668;2024-03-23T08:58:32;7.80;87.80
83841;DHT22;73868;52.172;10.668;2024-03-23T09:01:11;8.00;88.30
83841;DHT22;73868;52.172;10.668;2024-03-23T09:03:38;8.00;87.10
83841;DHT22;73868;52.172;10.668;2024-03-23T09:06:08;8.10;87.80
83841;DHT22;73868;52.172;10.668;2024-03-23T09:08:34;8.10;86.70
83841;DHT22;73868;52.172;10.668;2024-03-23T09:11:05;8.10;86.60
83841;DHT22;73868;52.172;10.668;2024-03-23T09:13:35;8.20;87.10
83841;DHT22;73868;52.172;10.668;2024-03-23T09:16:00;8.30;86.50
83841;DHT22;73868;52.172;10.668;2024-03-23T09:18:26;8.60;86.00
83841;DHT22;73868;52.172;10.668;2024-03-23T09:20:52;8.90;86.30
83841;DHT22;73868;52.172;10.668;2024-03-23T09:23:21;9.20;86.20
83841;DHT22;73868;52.172;10.668;2024-03-23T09:25:46;9.10;83.80
83841;DHT22;73868;52.172;10.668;2024-03-23T09:28:13;9.00;85.10
83841;DHT22;73868;52.172;10.668;2024-03-23T09:30:38;8.90;85.30
83841;DHT22;73868;52.172;10.668;2024-03-23T09:33:08;8.70;84.90
83841;DHT22;73868;52.172;10.668;2024-03-23T09:35:41;8.50;84.20
83841;DHT22;73868;52.172;10.668;2024-03-23T09:38:07;8.20;84.90
83841;DHT22;73868;52.172;10.668;2024-03-23T09:40:35;8.00;83.70
83841;DHT22;73868;52.172;10.668;2024-03-23T09:43:01;7.70;85.30
83841;DHT22;73868;52.172;10.668;2024-03-23T09:45:27;7.50;85.60
83841;DHT22;73868;52.172;10.668;2024-03-23T09:47:55;7.30;85.50
83841;DHT22;73868;52.172;10.668;2024-03-23T09:50:21;7.10;86.00
83841;DHT22;73868;52.172;10.668;2024-03-23T09:52:47;7.00;87.70
83841;DHT22;73868;52.172;10.668;2024-03-23T09:55:13;7.20;88.80
83841;DHT22;73868;52.172;10.668;2024-03-23T09:57:40;7.20;87.60
83841;DHT22;73868;52.172;10.668;2024-03-23T10:00:06;7.40;88.70
83841;DHT22;73868;52.172;10.668;2024-03-23T10:02:36;7.50;89.50
83841;DHT22;73868;52.172;10.668;2024-03-23T10:05:02;7.80;88.50
83841;DHT22;73868;52.172;10.668;2024-03-23T10:07:28;8.00;88.30
83841;DHT22;73868;52.172;10.668;2024-03-23T10:09:54;8.10;87.60
83841;DHT22;73868;52.172;10.668;2024-03-23T10:12:20;8.40;88.10
83841;DHT22;73868;52.172;10.668;2024-03-23T10:14:46;8.60;86.50
83841;DHT22;73868;52.172;10.668;2024-03-23T10:17:17;8.80;87.50
83841;DHT22;73868;52.172;10.668;2024-03-23T10:19:44;8.90;87.10
83841;DHT22;73868;52.172;10.668;2024-03-23T10:22:13;9.10;87.20
83841;DHT22;73868;52.172;10.668;2024-03-23T10:24:38;9.20;87.40
83841;DHT22;73868;52.172;10.668;2024-03-23T10:27:04;9.30;86.90
83841;DHT22;73868;52.172;10.668;2024-03-23T10:29:30;9.50;86.30
83841;DHT22;73868;52.172;10.668;2024-03-23T10:32:14;9.80;85.80
83841;DHT22;73868;52.172;10.668;2024-03-23T10:34:40;9.70;83.40
83841;DHT22;73868;52.172;10.668;2024-03-23T10:37:07;9.60;83.70
83841;DHT22;73868;52.172;10.668;2024-03-23T10:39:38;9.60;84.60
83841;DHT22;73868;52.172;10.668;2024-03-23T10:42:05;9.50;84.50
83841;DHT22;73868;52.172;10.668;2024-03-23T10:44:31;9.60;83.90
83841;DHT22;73868;52.172;10.668;2024-03-23T10:47:01;9.90;82.40
83841;DHT22;73868;52.172;10.668;2024-03-23T10:49:34;10.10;80.90
83841;DHT22;73868;52.172;10.668;2024-03-23T10:52:04;10.20;79.30
83841;DHT22;73868;52.172;10.668;2024-03-23T10:54:31;10.50;79.60
83841;DHT22;73868;52.172;10.668;2024-03-23T10:57:17;10.70;79.10
83841;DHT22;73868;52.172;10.668;2024-03-23T10:59:45;11.00;76.60
83841;DHT22;73868;52.172;10.668;2024-03-23T11:02:21;11.00;76.50
83841;DHT22;73868;52.172;10.668;2024-03-23T11:04:47;10.70;71.40
83841;DHT22;73868;52.172;10.668;2024-03-23T11:07:32;10.60;72.50
83841;DHT22;73868;52.172;10.668;2024-03-23T11:09:59;10.80;71.60
83841;DHT22;73868;52.172;10.668;2024-03-23T11:12:29;11.10;72.40
83841;DHT22;73868;52.172;10.668;2024-03-23T11:15:11;11.20;66.40
83841;DHT22;73868;52.172;10.668;2024-03-23T11:17:38;11.20;67.10
83841;DHT22;73868;52.172;10.668;2024-03-23T11:20:05;11.50;69.40
83841;DHT22;73868;52.172;10.668;2024-03-23T11:27:40;12.00;67.40
83841;DHT22;73868;52.172;10.668;2024-03-23T11:30:14;12.10;65.70
83841;DHT22;73868;52.172;10.668;2024-03-23T11:32:41;12.30;65.50
83841;DHT22;73868;52.172;10.668;2024-03-23T11:35:07;12.20;65.20
83841;DHT22;73868;52.172;10.668;2024-03-23T11:37:38;12.20;66.00
83841;DHT22;73868;52.172;10.668;2024-03-23T11:40:19;12.20;64.90
83841;DHT22;73868;52.172;10.668;2024-03-23T11:42:45;12.30;61.90
83841;DHT22;73868;52.172;10.668;2024-03-23T11:45:11;12.60;66.70
83841;DHT22;73868;52.172;10.668;2024-03-23T11:47:37;12.50;63.70
83841;DHT22;73868;52.172;10.668;2024-03-23T11:50:02;12.60;65.10
83841;DHT22;73868;52.172;10.668;2024-03-23T11:52:28;12.50;64.80
83841;DHT22;73868;52.172;10.668;2024-03-23T11:55:05;12.10;61.90
83841;DHT22;73868;52.172;10.668;2024-03-23T11:57:33;11.70;65.10
83841;DHT22;73868;52.172;10.668;2024-03-23T11:59:58;11.20;68.30
83841;DHT22;73868;52.172;10.668;2024-03-23T12:02:24;10.60;69.60
83841;DHT22;73868;52.172;10.668;2024-03-23T12:04:49;9.70;69.50
83841;DHT22;73868;52.172;10.668;2024-03-23T12:07:18;9.30;72.00
83841;DHT22;73868;52.172;10.668;2024-03-23T12:09:45;9.10;72.90
83841;DHT22;73868;52.172;10.668;2024-03-23T12:12:17;9.30;72.50
83841;DHT22;73868;52.172;10.668;2024-03-23T12:15:03;9.70;72.30
83841;DHT22;73868;52.172;10.668;2024-03-23T12:17:29;10.10;71.90
83841;DHT22;73868;52.172;10.668;2024-03-23T12:19:54;10.20;70.10
83841;DHT22;73868;52.172;10.668;2024-03-23T12:22:24;10.30;69.40
83841;DHT22;73868;52.172;10.668;2024-03-23T12:24:50;10.30;69.10
83841;DHT22;73868;52.172;10.668;2024-03-23T12:27:16;10.20;68.90
83841;DHT22;73868;52.172;10.668;2024-03-23T12:29:42;10.20;71.20
83841;DHT22;73868;52.172;10.668;2024-03-23T12:32:11;9.70;71.00
83841;DHT22;73868;52.172;10.668;2024-03-23T12:34:36;9.50;74.10
83841;DHT22;73868;52.172;10.668;2024-03-23T12:37:02;9.10;77.00
83841;DHT22;73868;52.172;10.668;2024-03-23T12:39:27;8.90;79.20
83841;DHT22;73868;52.172;10.668;2024-03-23T12:41:53;8.40;80.20
83841;DHT22;73868;52.172;10.668;2024-03-23T12:44:19;8.30;81.10
83841;DHT22;73868;52.172;10.668;2024-03-23T12:46:45;8.20;80.50
83841;DHT22;73868;52.172;10.668;2024-03-23T12:49:11;8.30;78.90
83841;DHT22;73868;52.172;10.668;2024-03-23T12:51:36;8.60;80.40
83841;DHT22;73868;52.172;10.668;2024-03-23T12:54:02;9.10;78.60
83841;DHT22;73868;52.172;10.668;2024-03-23T12:56:47;9.40;76.70
83841;DHT22;73868;52.172;10.668;2024-03-23T12:59:12;9.60;76.70
83841;DHT22;73868;52.172;10.668;2024-03-23T13:01:39;9.80;76.80
83841;DHT22;73868;52.172;10.668;2024-03-23T13:04:05;10.10;75.00
83841;DHT22;73868;52.172;10.668;2024-03-23T13:06:30;10.50;76.20
83841;DHT22;73868;52.172;10.668;2024-03-23T13:09:02;10.70;72.90
83841;DHT22;73868;52.172;10.668;2024-03-23T13:11:29;10.60;72.80
83841;DHT22;73868;52.172;10.668;2024-03-23T13:13:55;10.30;72.40
83841;DHT22;73868;52.172;10.668;2024-03-23T13:16:20;9.80;72.90
83841;DHT22;73868;52.172;10.668;2024-03-23T13:18:46;9.30;75.70
83841;DHT22;73868;52.172;10.668;2024-03-23T13:21:12;8.70;79.80
83841;DHT22;73868;52.172;10.668;2024-03-23T13:23:41;8.20;81.90
83841;DHT22;73868;52.172;10.668;2024-03-23T13:26:09;7.90;83.40
83841;DHT22;73868;52.172;10.668;2024-03-23T13:28:34;7.70;84.40
83841;DHT22;73868;52.172;10.668;2024-03-23T13:31:01;7.70;85.30
83841;DHT22;73868;52.172;10.668;2024-03-23T13:33:31;7.90;85.90
83841;DHT22;73868;52.172;10.668;2024-03-23T13:35:58;8.10;84.70
83841;DHT22;73868;52.172;10.668;2024-03-23T13:38:23;8.30;84.40
83841;DHT22;73868;52.172;10.668;2024-03-23T13:40:59;8.40;84.40
83841;DHT22;73868;52.172;10.668;2024-03-23T13:43:26;8.60;85.00
83841;DHT22;73868;52.172;10.668;2024-03-23T13:45:57;8.50;82.70
83841;DHT22;73868;52.172;10.668;2024-03-23T13:48:24;8.50;83.40
83841;DHT22;73868;52.172;10.668;2024-03-23T13:50:59;8.20;82.50
83841;DHT22;73868;52.172;10.668;2024-03-23T13:53:25;8.10;83.50
83841;DHT22;73868;52.172;10.668;2024-03-23T13:55:51;7.70;84.70
83841;DHT22;73868;52.172;10.668;2024-03-23T13:58:16;7.00;84.00
83841;DHT22;73868;52.172;10.668;2024-03-23T14:00:42;6.50;87.10
83841;DHT22;73868;52.172;10.668;2024-03-23T14:03:09;6.40;87.70
83841;DHT22;73868;52.172;10.668;2024-03-23T14:05:34;6.60;89.50
83841;DHT22;73868;52.172;10.668;2024-03-23T14:08:00;6.60;89.10
83841;DHT22;73868;52.172;10.668;2024-03-23T14:10:26;7.00;88.90
83841;DHT22;73868;52.172;10.668;2024-03-23T14:12:53;7.50;88.10
83841;DHT22;73868;52.172;10.668;2024-03-23T14:15:18;7.60;86.90
83841;DHT22;73868;52.172;10.668;2024-03-23T14:17:44;7.70;85.10
83841;DHT22;73868;52.172;10.668;2024-03-23T14:20:10;7.70;85.10
83841;DHT22;73868;52.172;10.668;2024-03-23T14:22:37;7.80;82.90
83841;DHT22;73868;52.172;10.668;2024-03-23T14:25:02;7.80;85.90
83841;DHT22;73868;52.172;10.668;2024-03-23T14:27:29;7.90;87.10
83841;DHT22;73868;52.172;10.668;2024-03-23T14:29:55;7.90;85.00
83841;DHT22;73868;52.172;10.668;2024-03-23T14:32:21;7.90;85.10
83841;DHT22;73868;52.172;10.668;2024-03-23T14:34:47;8.00;85.30
83841;DHT22;73868;52.172;10.668;2024-03-23T14:37:12;8.00;85.30
83841;DHT22;73868;52.172;10.668;2024-03-23T14:39:38;8.10;85.20
83841;DHT22;73868;52.172;10.668;2024-03-23T14:42:07;8.00;84.00
83841;DHT22;73868;52.172;10.668;2024-03-23T14:44:34;7.80;83.50
83841;DHT22;73868;52.172;10.668;2024-03-23T14:46:59;7.60;82.60
83841;DHT22;73868;52.172;10.668;2024-03-23T14:49:25;7.60;83.40
83841;DHT22;73868;52.172;10.668;2024-03-23T14:51:51;7.60;83.20
83841;DHT22;73868;52.172;10.668;2024-03-23T14:54:17;7.40;82.70
83841;DHT22;73868;52.172;10.668;2024-03-23T14:56:42;7.30;83.60
83841;DHT22;73868;52.172;10.668;2024-03-23T14:59:08;7.30;84.20
83841;DHT22;73868;52.172;10.668;2024-03-23T15:01:33;7.20;85.00
83841;DHT22;73868;52.172;10.668;2024-03-23T15:04:00;7.40;84.90
83841;DHT22;73868;52.172;10.668;2024-03-23T15:06:25;7.40;83.30
83841;DHT22;73868;52.172;10.668;2024-03-23T15:08:51;7.50;83.40
83841;DHT22;73868;52.172;10.668;2024-03-23T15:11:16;7.60;84.50
83841;DHT22;73868;52.172;10.668;2024-03-23T15:13:45;7.50;82.60
83841;DHT22;73868;52.172;10.668;2024-03-23T15:16:10;7.60;84.10
83841;DHT22;73868;52.172;10.668;2024-03-23T15:18:36;7.70;82.70
83841;DHT22;73868;52.172;10.668;2024-03-23T15:21:03;7.90;82.70
83841;DHT22;73868;52.172;10.668;2024-03-23T15:23:33;7.90;82.40
83841;DHT22;73868;52.172;10.668;2024-03-23T15:25:59;7.80;82.60
83841;DHT22;73868;52.172;10.668;2024-03-23T15:28:29;7.80;82.90
83841;DHT22;73868;52.172;10.668;2024-03-23T15:31:05;7.60;82.90
83841;DHT22;73868;52.172;10.668;2024-03-23T15:33:30;7.60;83.20
83841;DHT22;73868;52.172;10.668;2024-03-23T15:35:59;7.50;82.00
83841;DHT22;73868;52.172;10.668;2024-03-23T15:38:25;7.60;81.80
83841;DHT22;73868;52.172;10.668;2024-03-23T15:40:52;7.60;81.60
83841;DHT22;73868;52.172;10.668;2024-03-23T15:43:17;7.70;81.00
83841;DHT22;73868;52.172;10.668;2024-03-23T15:45:43;7.80;80.90
83841;DHT22;73868;52.172;10.668;2024-03-23T15:48:09;7.80;80.50
83841;DHT22;73868;52.172;10.668;2024-03-23T15:50:34;7.70;81.60
83841;DHT22;73868;52.172;10.668;2024-03-23T15:53:00;7.50;80.10
83841;DHT22;73868;52.172;10.668;2024-03-23T15:55:25;7.40;81.00
83841;DHT22;73868;52.172;10.668;2024-03-23T15:57:51;7.40;82.40
83841;DHT22;73868;52.172;10.668;2024-03-23T16:00:17;7.30;82.80
83841;DHT22;73868;52.172;10.668;2024-03-23T16:02:43;7.20;83.20
83841;DHT22;73868;52.172;10.668;2024-03-23T16:05:08;7.30;81.70
83841;DHT22;73868;52.172;10.668;2024-03-23T16:07:37;7.30;82.70
83841;DHT22;73868;52.172;10.668;2024-03-23T16:10:02;7.30;82.10
83841;DHT22;73868;52.172;10.668;2024-03-23T16:12:32;7.20;82.30
83841;DHT22;73868;52.172;10.668;2024-03-23T16:14:58;7.10;80.60
83841;DHT22;73868;52.172;10.668;2024-03-23T16:17:23;7.20;81.90
83841;DHT22;73868;52.172;10.668;2024-03-23T16:19:49;7.10;81.70
83841;DHT22;73868;52.172;10.668;2024-03-23T16:22:14;7.20;81.40
83841;DHT22;73868;52.172;10.668;2024-03-23T16:24:40;7.20;81.90